Time;durP1;ratioP1;P1;durP2;ratioP2;P2;SDS_P1;SDS_P2;PMS_P1;PMS_P2;Temp;Humidity;BMP_temperature;BMP_pressure;BME280_temperature;BME280_humidity;BME280_pressure;Samples;Min_cycle;Max_cycle;Signal;HPM_P1;HPM_P2
2022/01/03 00:00:10;;;;;;;18.30;8.43;;;;;;;11.00;65.80;98028.00;4487671;32;20112;-77
2022/01/03 00:02:38;;;;;;;18.45;8.27;;;;;;;11.43;63.89;98033.78;4488287;32;20108;-77
2022/01/03 00:05:06;;;;;;;19.15;9.27;;;;;;;11.30;64.40;98025.78;4488131;32;20159;-77
2022/01/03 00:07:37;;;;;;;23.48;9.15;;;;;;;11.19;64.43;98033.16;4487244;32;20156;-77
2022/01/03 00:10:05;;;;;;;19.00;9.73;;;;;;;11.42;63.80;98039.03;4487875;32;20143;-77
2022/01/03 00:12:33;;;;;;;18.83;9.10;;;;;;;11.23;63.84;98023.53;4488141;32;20172;-77
2022/01/03 00:15:00;;;;;;;22.67;10.10;;;;;;;10.41;66.59;98028.00;4487310;32;20521;-77
2022/01/03 00:17:27;;;;;;;21.42;10.60;;;;;;;10.69;65.80;98038.81;4488095;32;20107;-77
2022/01/03 00:19:54;;;;;;;20.42;9.63;;;;;;;10.39;67.80;98042.72;4473867;32;20093;-77
2022/01/03 00:22:23;;;;;;;20.25;9.93;;;;;;;9.85;70.49;98028.56;4488003;32;20068;-77
2022/01/03 00:25:05;;;;;;;19.05;9.50;;;;;;;10.01;70.26;98021.06;4488585;32;20148;-76
2022/01/03 00:27:40;;;;;;;18.85;9.48;;;;;;;10.45;69.01;98010.66;4488690;32;20508;-76
2022/01/03 00:30:08;;;;;;;20.90;9.80;;;;;;;11.43;65.12;98020.88;4473985;32;20451;-76
2022/01/03 00:32:37;;;;;;;18.80;10.00;;;;;;;11.49;64.67;98014.59;4488124;32;20102;-77
2022/01/03 00:35:05;;;;;;;20.70;9.75;;;;;;;11.55;64.52;98028.03;4487783;32;20157;-77
2022/01/03 00:37:34;;;;;;;18.45;9.75;;;;;;;12.29;60.81;98021.94;4473871;32;20426;-77
2022/01/03 00:40:03;;;;;;;20.55;10.30;;;;;;;11.52;62.37;98011.84;4473677;32;20159;-77
2022/01/03 00:42:31;;;;;;;20.30;10.07;;;;;;;11.07;64.67;97999.31;4487742;32;20143;-77
2022/01/03 00:45:00;;;;;;;21.25;9.93;;;;;;;11.98;61.44;98014.84;4473700;32;20115;-77
2022/01/03 00:47:31;;;;;;;20.23;10.00;;;;;;;12.61;58.96;98009.94;4487879;32;20107;-77
2022/01/03 00:50:03;;;;;;;20.90;9.70;;;;;;;12.35;59.41;98017.28;4473306;32;20382;-77
2022/01/03 00:52:30;;;;;;;20.27;9.57;;;;;;;12.69;58.50;98010.41;4487874;32;20423;-77
2022/01/03 00:54:57;;;;;;;19.98;9.80;;;;;;;12.45;58.88;98002.97;4487710;32;20437;-77
2022/01/03 00:57:31;;;;;;;19.25;9.50;;;;;;;12.83;57.84;98026.03;4487494;32;20080;-77
2022/01/03 01:00:05;;;;;;;19.45;10.20;;;;;;;11.95;60.64;98020.19;4487652;32;20176;-77
2022/01/03 01:02:36;;;;;;;21.20;10.10;;;;;;;12.92;56.82;98011.78;4487892;32;20111;-77
2022/01/03 01:05:05;;;;;;;20.25;10.88;;;;;;;12.34;59.54;98025.97;4487306;32;20100;-77
2022/01/03 01:07:32;;;;;;;20.35;10.38;;;;;;;12.54;58.46;98018.94;4487713;32;20424;-78
2022/01/03 01:10:01;;;;;;;21.37;10.75;;;;;;;12.91;57.43;98029.06;4487451;32;20103;-78
2022/01/03 01:12:30;;;;;;;20.15;10.80;;;;;;;13.50;54.63;98027.63;4487356;32;20498;-78
2022/01/03 01:14:58;;;;;;;19.80;10.88;;;;;;;13.04;55.62;98022.31;4487269;32;20159;-78
2022/01/03 01:17:28;;;;;;;19.33;9.75;;;;;;;13.55;54.48;98035.19;4487354;32;20117;-78
2022/01/03 01:19:57;;;;;;;20.67;10.07;;;;;;;13.40;54.69;98047.22;4486181;32;20152;-77
2022/01/03 01:22:24;;;;;;;19.37;9.77;;;;;;;14.09;52.62;98041.63;4473577;32;20208;-78
2022/01/03 01:25:11;;;;;;;18.08;9.18;;;;;;;13.96;52.71;98039.81;4487123;32;20152;-78
2022/01/03 01:27:48;;;;;;;18.37;8.73;;;;;;;14.39;51.04;98033.84;4487707;32;20100;-78
2022/01/03 01:30:15;;;;;;;;;;;;;;;14.05;51.85;98016.78;4487892;32;20152;-78
2022/01/03 01:33:01;;;;;;;16.23;7.57;;;;;;;13.44;52.88;97999.47;4487357;32;19998;-78
2022/01/03 01:35:57;;;;;;;17.23;8.52;;;;;;;13.07;54.21;98008.38;4487477;32;20159;-77
2022/01/03 01:38:31;;;;;;;18.05;8.10;;;;;;;13.32;52.95;98011.34;4487285;32;20108;-78
2022/01/03 01:40:59;;;;;;;16.65;8.68;;;;;;;11.97;55.26;98019.19;4473370;32;20088;-77
2022/01/03 01:43:34;;;;;;;17.77;8.18;;;;;;;11.12;58.50;98020.59;4487452;32;20084;-77
2022/01/03 01:46:05;;;;;;;16.83;8.50;;;;;;;11.21;58.70;98005.53;4487105;32;20092;-77
2022/01/03 01:48:33;;;;;;;16.05;7.40;;;;;;;12.62;53.81;98014.22;4473426;32;20120;-77
2022/01/03 01:51:01;;;;;;;16.02;7.45;;;;;;;13.87;50.11;98016.06;4487260;32;20102;-78
2022/01/03 01:53:28;;;;;;;14.68;7.00;;;;;;;13.62;50.41;98014.94;4487118;32;20102;-78
2022/01/03 01:55:58;;;;;;;16.75;8.15;;;;;;;13.85;49.80;98019.69;4487193;32;20100;-78
2022/01/03 01:58:51;;;;;;;16.25;7.70;;;;;;;13.86;49.39;98011.81;4487341;32;20164;-78
2022/01/03 02:01:20;;;;;;;16.55;8.45;;;;;;;13.79;49.27;97999.28;4472852;32;20106;-77
2022/01/03 02:03:53;;;;;;;14.77;7.25;;;;;;;14.98;46.05;97992.25;4487238;32;20419;-78
2022/01/03 02:06:33;;;;;;;15.75;7.12;;;;;;;14.65;46.44;97989.94;4472909;32;20114;-78
2022/01/03 02:09:03;;;;;;;13.52;6.55;;;;;;;14.90;45.43;97997.13;4487191;32;20114;-77
2022/01/03 02:11:50;;;;;;;15.07;7.03;;;;;;;14.69;46.08;97989.69;4487340;32;20084;-77
2022/01/03 02:14:18;;;;;;;14.48;6.95;;;;;;;14.24;47.22;97981.97;4486627;32;20405;-78
2022/01/03 02:16:47;;;;;;;17.10;7.20;;;;;;;14.59;45.90;97985.12;4473089;32;20115;-78
2022/01/03 02:19:14;;;;;;;16.30;7.68;;;;;;;15.17;44.06;97982.41;4487002;32;20093;-78
2022/01/03 02:21:42;;;;;;;18.52;8.23;;;;;;;14.16;45.89;97979.84;4486769;32;20151;-78
2022/01/03 02:24:09;;;;;;;15.10;7.72;;;;;;;14.82;45.04;97986.34;4472956;32;20085;-78
2022/01/03 02:26:36;;;;;;;15.98;7.87;;;;;;;14.49;45.42;97986.63;4487069;32;20123;-78
2022/01/03 02:29:05;;;;;;;16.45;8.18;;;;;;;14.27;45.72;97977.47;4486561;32;20398;-78
2022/01/03 02:31:33;;;;;;;15.02;6.95;;;;;;;14.05;45.86;97979.66;4486531;32;20088;-78
2022/01/03 02:34:03;;;;;;;16.20;7.75;;;;;;;13.16;48.09;97973.37;4487114;32;20135;-77
2022/01/03 02:36:31;;;;;;;17.58;8.02;;;;;;;13.28;47.26;97972.72;4486481;32;20160;-78
2022/01/03 02:38:58;;;;;;;18.20;9.02;;;;;;;10.44;56.79;97971.16;4486776;32;20515;-78
2022/01/03 02:41:26;;;;;;;17.37;8.80;;;;;;;10.35;57.89;97969.78;4486491;32;20126;-78
2022/01/03 02:43:53;;;;;;;16.70;8.68;;;;;;;11.59;53.72;97961.56;4486769;32;20601;-78
2022/01/03 02:46:20;;;;;;;18.02;9.18;;;;;;;9.39;62.29;97966.00;4486608;32;20108;-78
2022/01/03 02:48:47;;;;;;;20.15;9.88;;;;;;;11.74;54.72;97958.22;4472261;32;20168;-78
2022/01/03 02:51:14;;;;;;;17.33;8.60;;;;;;;11.92;52.69;97951.34;4486807;32;20161;-78
2022/01/03 02:53:41;;;;;;;17.42;8.43;;;;;;;12.19;51.47;97949.13;4486703;32;20120;-78
2022/01/03 02:56:08;;;;;;;16.95;7.82;;;;;;;12.19;51.61;97949.13;4486182;32;20458;-78
2022/01/03 02:58:35;;;;;;;17.08;7.68;;;;;;;13.12;49.34;97936.44;4486463;32;20156;-78
2022/01/03 03:01:03;;;;;;;15.00;7.68;;;;;;;13.12;49.73;97941.63;4486703;32;20155;-78
2022/01/03 03:03:30;;;;;;;16.35;8.63;;;;;;;11.93;52.58;97928.94;4486160;32;20106;-78
2022/01/03 03:05:59;;;;;;;16.20;8.15;;;;;;;12.11;52.42;97927.97;4486431;32;20125;-78
2022/01/03 03:08:26;;;;;;;17.73;7.70;;;;;;;12.29;51.80;97924.47;4486379;32;20529;-78
2022/01/03 03:10:53;;;;;;;16.60;7.20;;;;;;;11.70;52.59;97910.19;4486051;32;20080;-78
2022/01/03 03:13:20;;;;;;;16.90;7.50;;;;;;;12.51;50.29;97913.81;4486452;32;20455;-77
2022/01/03 03:15:48;;;;;;;14.73;7.25;;;;;;;12.27;51.04;97918.53;4485923;32;20107;-77
2022/01/03 03:18:16;;;;;;;16.05;7.43;;;;;;;12.82;49.35;97909.62;4486117;32;20104;-78
2022/01/03 03:20:44;;;;;;;14.95;6.55;;;;;;;12.77;49.25;97917.63;4486231;32;20163;-78
2022/01/03 03:23:11;;;;;;;14.95;7.12;;;;;;;13.04;48.53;97913.53;4486199;32;20128;-78
2022/01/03 03:25:38;;;;;;;14.68;7.25;;;;;;;12.65;48.89;97906.19;4486012;32;20152;-78
2022/01/03 03:28:11;;;;;;;16.42;7.80;;;;;;;11.52;52.61;97908.50;4486218;32;20176;-77
2022/01/03 03:30:41;;;;;;;17.98;7.72;;;;;;;12.37;49.60;97905.97;4485734;32;20092;-77
2022/01/03 03:33:19;;;;;;;14.05;7.07;;;;;;;11.76;50.79;97909.88;4486194;32;20089;-77
2022/01/03 03:35:46;;;;;;;17.10;7.20;;;;;;;10.03;56.62;97911.84;4486001;32;20104;-77
2022/01/03 03:38:14;;;;;;;15.43;6.87;;;;;;;9.47;59.40;97912.47;4485586;32;20133;-77
2022/01/03 03:40:45;;;;;;;14.27;6.40;;;;;;;9.50;59.06;97919.22;4471924;32;20108;-77
2022/01/03 03:43:13;;;;;;;16.05;6.28;;;;;;;8.96;62.10;97913.59;4486608;32;20073;-77
2022/01/03 03:45:40;;;;;;;15.73;7.37;;;;;;;8.73;63.33;97903.34;4487860;32;20100;-77
2022/01/03 03:48:07;;;;;;;18.08;8.05;;;;;;;9.18;63.42;97908.47;4488284;32;20112;-77
2022/01/03 03:50:34;;;;;;;17.42;8.15;;;;;;;10.04;61.50;97900.62;4488319;32;20093;-77
2022/01/03 03:53:03;;;;;;;17.50;7.97;;;;;;;10.51;59.64;97902.88;4487965;32;20088;-77
2022/01/03 03:55:31;;;;;;;16.08;7.97;;;;;;;11.00;58.73;97898.91;4488043;32;20496;-77
2022/01/03 03:57:59;;;;;;;17.20;8.02;;;;;;;11.52;57.15;97895.59;4488176;32;20107;-77
2022/01/03 04:00:27;;;;;;;16.58;8.30;;;;;;;11.55;56.62;97895.44;4488405;32;20099;-77
2022/01/03 04:02:54;;;;;;;17.62;8.75;;;;;;;11.09;57.58;97889.06;4488934;32;20080;-76
2022/01/03 04:05:21;;;;;;;17.05;7.95;;;;;;;11.12;57.65;97881.16;4488432;32;20135;-77
2022/01/03 04:07:48;;;;;;;18.12;8.93;;;;;;;11.47;56.42;97882.03;4488076;32;20100;-77
2022/01/03 04:10:16;;;;;;;16.08;8.15;;;;;;;9.42;64.38;97878.31;4488057;32;20102;-77
2022/01/03 04:12:45;;;;;;;17.00;7.37;;;;;;;11.18;57.69;97880.88;4487639;32;20104;-77
2022/01/03 04:15:13;;;;;;;17.75;7.90;;;;;;;11.82;54.64;97883.75;4460791;32;20462;-77
2022/01/03 04:17:40;;;;;;;15.35;7.72;;;;;;;12.19;53.23;97889.63;4488127;32;20510;-77
2022/01/03 04:20:08;;;;;;;14.95;7.00;;;;;;;11.56;54.32;97887.59;4487557;32;20455;-77
2022/01/03 04:22:35;;;;;;;16.12;7.28;;;;;;;11.69;54.53;97895.56;4488086;32;20136;-77
2022/01/03 04:25:03;;;;;;;16.77;7.57;;;;;;;11.40;55.26;97896.19;4487836;32;20148;-77
2022/01/03 04:27:30;;;;;;;16.08;7.20;;;;;;;11.75;54.29;97891.88;4487683;32;20099;-77
2022/01/03 04:29:57;;;;;;;15.27;7.15;;;;;;;12.31;52.54;97880.41;4487706;32;20176;-77
2022/01/03 04:32:24;;;;;;;16.80;7.93;;;;;;;12.08;53.12;97887.59;4488033;32;20080;-77
2022/01/03 04:34:51;;;;;;;16.33;7.78;;;;;;;11.53;54.73;97890.34;4487620;32;20144;-78
2022/01/03 04:37:18;;;;;;;14.65;7.78;;;;;;;11.71;54.49;97893.78;4487897;32;20144;-77
2022/01/03 04:39:45;;;;;;;15.32;7.40;;;;;;;11.36;54.71;97897.22;4487842;32;20171;-78
2022/01/03 04:42:12;;;;;;;16.02;7.30;;;;;;;12.34;52.36;97894.03;4487645;32;20669;-78
2022/01/03 04:44:39;;;;;;;16.27;7.43;;;;;;;11.96;53.14;97901.16;4487759;32;20370;-77
2022/01/03 04:47:06;;;;;;;16.85;7.78;;;;;;;12.18;52.49;97905.22;4487855;32;20137;-77
2022/01/03 04:49:34;;;;;;;16.05;7.15;;;;;;;12.33;52.22;97907.00;4487459;32;20103;-78
2022/01/03 04:52:02;;;;;;;16.45;6.75;;;;;;;12.36;52.24;97896.53;4488044;32;20103;-78
2022/01/03 04:54:29;;;;;;;14.40;6.82;;;;;;;12.96;49.99;97901.91;4487543;32;20430;-78
2022/01/03 04:56:58;;;;;;;17.52;7.62;;;;;;;12.74;50.68;97910.00;4487409;32;20449;-78
2022/01/03 04:59:26;;;;;;;15.55;7.35;;;;;;;12.84;50.32;97907.78;4487585;32;20088;-78
2022/01/03 05:01:53;;;;;;;15.45;7.12;;;;;;;12.89;50.46;97898.84;4487529;32;20163;-77
2022/01/03 05:04:20;;;;;;;14.27;6.87;;;;;;;12.33;52.13;97900.09;4487770;32;20386;-77
2022/01/03 05:06:47;;;;;;;15.57;7.37;;;;;;;12.55;51.76;97905.00;4487667;32;20101;-77
2022/01/03 05:09:14;;;;;;;17.40;7.10;;;;;;;12.76;50.46;97908.22;4487126;32;20508;-77
2022/01/03 05:11:42;;;;;;;16.33;7.32;;;;;;;12.75;50.58;97903.91;4487733;32;20175;-77
2022/01/03 05:14:09;;;;;;;13.57;6.18;;;;;;;12.48;51.19;97898.47;4487499;32;20114;-77
2022/01/03 05:16:36;;;;;;;14.45;5.62;;;;;;;12.85;50.53;97899.06;4487415;32;20602;-77
2022/01/03 05:19:03;;;;;;;13.25;5.45;;;;;;;13.67;47.88;97893.66;4473476;32;20535;-78
2022/01/03 05:21:30;;;;;;;12.05;5.37;;;;;;;13.68;47.92;97903.09;4487909;32;20480;-77
2022/01/03 05:23:58;;;;;;;13.38;5.50;;;;;;;14.29;45.61;97889.13;4487286;32;20164;-77
2022/01/03 05:26:25;;;;;;;13.15;5.55;;;;;;;14.00;46.57;97885.69;4487563;32;20145;-77
2022/01/03 05:28:52;;;;;;;12.60;6.45;;;;;;;13.25;48.55;97890.00;4487465;32;20156;-77
2022/01/03 05:31:20;;;;;;;18.08;8.18;;;;;;;13.16;48.89;97886.12;4487238;32;20156;-77
2022/01/03 05:33:47;;;;;;;20.85;9.15;;;;;;;12.37;50.73;97880.94;4487466;32;20092;-77
2022/01/03 05:36:14;;;;;;;20.67;8.73;;;;;;;12.84;49.78;97885.31;4487457;32;20639;-77
2022/01/03 05:38:41;;;;;;;19.52;7.95;;;;;;;12.76;50.85;97882.31;4487123;32;20502;-77
2022/01/03 05:41:08;;;;;;;17.42;7.07;;;;;;;14.10;46.52;97877.25;4487448;32;20156;-77
2022/01/03 05:43:35;;;;;;;21.12;9.73;;;;;;;14.45;46.29;97889.91;4487510;32;20093;-78
2022/01/03 05:46:02;;;;;;;30.15;13.70;;;;;;;15.18;44.54;97887.91;4487096;32;20099;-78
2022/01/03 05:48:29;;;;;;;27.15;11.05;;;;;;;14.48;46.45;97881.94;4487306;32;20447;-78
2022/01/03 05:50:56;;;;;;;32.05;14.77;;;;;;;15.18;44.97;97882.72;4487140;32;20471;-78
2022/01/03 05:53:23;;;;;;;32.75;15.95;;;;;;;14.62;46.17;97884.50;4487477;32;20490;-78
2022/01/03 05:55:50;;;;;;;33.20;16.37;;;;;;;14.69;46.65;97884.97;4487361;32;20098;-78
2022/01/03 05:58:17;;;;;;;38.70;18.08;;;;;;;14.33;46.94;97882.81;4487035;32;20171;-78
2022/01/03 06:00:45;;;;;;;45.20;23.50;;;;;;;15.02;45.56;97882.87;4487273;32;20088;-78
2022/01/03 06:03:14;;;;;;;48.25;23.35;;;;;;;15.40;44.25;97889.97;4487494;32;20140;-78
2022/01/03 06:06:04;;;;;;;38.90;18.05;;;;;;;14.26;47.32;97890.16;4486080;32;20092;-78
2022/01/03 06:08:28;;;;;;;34.53;14.43;;;;;;;14.72;46.53;97892.56;4487331;32;20431;-78
2022/01/03 06:10:55;;;;;;;21.55;10.27;;;;;;;14.56;46.59;97900.47;4487304;32;20088;-77
2022/01/03 06:13:23;;;;;;;29.67;14.50;;;;;;;15.14;44.82;97909.00;4486920;32;20410;-77
2022/01/03 06:15:50;;;;;;;35.38;17.48;;;;;;;13.56;48.94;97894.28;4486903;32;20140;-77
2022/01/03 06:18:18;;;;;;;18.40;8.00;;;;;;;13.34;49.57;97909.38;4487153;32;20461;-78
2022/01/03 06:20:46;;;;;;;11.02;4.80;;;;;;;14.11;47.08;97919.59;4472735;32;20097;-77
2022/01/03 06:23:16;;;;;;;11.32;4.75;;;;;;;13.82;47.35;97922.16;4487039;32;20096;-77
2022/01/03 06:25:43;;;;;;;11.63;4.82;;;;;;;12.69;51.14;97930.16;4487006;32;20110;-78
2022/01/03 06:28:11;;;;;;;12.90;5.82;;;;;;;12.18;52.76;97919.00;4486831;32;20100;-77
2022/01/03 06:30:41;;;;;;;14.32;6.57;;;;;;;12.26;53.01;97914.28;4487161;32;20426;-78
2022/01/03 06:33:09;;;;;;;13.35;6.32;;;;;;;11.66;54.88;97906.06;4486767;32;20127;-77
2022/01/03 06:35:36;;;;;;;15.65;7.40;;;;;;;11.31;56.14;97920.69;4486860;32;20152;-77
2022/01/03 06:38:04;;;;;;;15.80;6.93;;;;;;;11.67;55.51;97917.25;4486809;32;20176;-77
2022/01/03 06:40:31;;;;;;;16.92;8.10;;;;;;;10.45;59.76;97920.37;4472333;32;20085;-77
2022/01/03 06:42:58;;;;;;;14.85;7.37;;;;;;;10.10;61.26;97909.81;4486785;32;20478;-77
2022/01/03 06:45:25;;;;;;;17.20;8.48;;;;;;;10.50;60.00;97915.84;4486720;32;20106;-77
2022/01/03 06:47:55;;;;;;;18.45;7.90;;;;;;;10.36;60.68;97916.47;4486322;32;20084;-77
2022/01/03 06:50:22;;;;;;;17.70;8.07;;;;;;;10.97;58.37;97921.47;4486657;32;20567;-77
2022/01/03 06:52:49;;;;;;;17.35;8.15;;;;;;;11.42;56.90;97931.34;4486548;32;20165;-76
2022/01/03 06:55:16;;;;;;;16.37;7.95;;;;;;;11.98;55.15;97924.34;4486219;32;20506;-76
2022/01/03 06:57:43;;;;;;;16.45;7.35;;;;;;;11.67;56.40;97923.25;4486608;32;20167;-76
2022/01/03 07:00:11;;;;;;;16.83;7.50;;;;;;;12.02;55.35;97920.72;4486476;32;20159;-76
2022/01/03 07:02:42;;;;;;;23.90;10.50;;;;;;;10.75;59.29;97913.03;4486153;32;20153;-76
2022/01/03 07:05:11;;;;;;;28.30;16.00;;;;;;;10.56;59.82;97908.69;4472413;32;20474;-76
2022/01/03 07:07:38;;;;;;;29.00;15.10;;;;;;;12.74;53.16;97925.53;4486346;32;20429;-76
2022/01/03 07:10:05;;;;;;;28.17;15.15;;;;;;;11.32;57.27;97924.97;4485929;32;20160;-77
2022/01/03 07:12:32;;;;;;;35.70;18.48;;;;;;;12.74;53.19;97933.31;4486252;32;20160;-76
2022/01/03 07:20:12;;;;;;;13.25;6.15;;;;;;;13.41;51.02;97937.47;4488481;32;20084;-77
2022/01/03 07:22:40;;;;;;;14.18;6.32;;;;;;;14.40;48.04;97942.06;4488171;32;20093;-77
2022/01/03 07:25:08;;;;;;;13.02;6.22;;;;;;;12.32;53.04;97932.06;4488414;32;20143;-77
2022/01/03 07:27:36;;;;;;;13.10;5.80;;;;;;;13.62;50.10;97939.78;4488417;32;20092;-78
2022/01/03 07:30:05;;;;;;;13.93;5.55;;;;;;;13.28;51.00;97939.03;4487854;32;20455;-77
2022/01/03 07:32:31;;;;;;;13.73;6.00;;;;;;;12.83;52.04;97950.13;4488437;32;20152;-76
2022/01/03 07:34:58;;;;;;;16.15;7.15;;;;;;;12.75;52.16;97958.28;4488396;32;20112;-76
2022/01/03 07:37:25;;;;;;;16.00;7.20;;;;;;;12.14;54.14;97948.53;4488199;32;20076;-77
2022/01/03 07:39:53;;;;;;;15.65;7.43;;;;;;;13.07;51.47;97945.38;4489204;32;20084;-77
2022/01/03 07:42:20;;;;;;;14.63;6.93;;;;;;;12.33;53.75;97951.84;4488689;32;20111;-76
2022/01/03 07:44:47;;;;;;;15.95;7.57;;;;;;;12.60;53.16;97944.41;4487959;32;20156;-77
2022/01/03 07:47:14;;;;;;;16.77;8.02;;;;;;;12.18;54.47;97929.34;4488237;32;20411;-76
2022/01/03 07:49:41;;;;;;;16.62;7.60;;;;;;;12.27;54.30;97943.56;4487890;32;20072;-77
2022/01/03 07:52:08;;;;;;;15.93;7.90;;;;;;;12.43;53.89;97950.44;4473803;32;20110;-76
2022/01/03 07:54:35;;;;;;;18.37;7.93;;;;;;;13.04;52.21;97946.38;4473767;32;20105;-74
2022/01/03 07:57:03;;;;;;;16.15;7.70;;;;;;;12.87;52.44;97949.88;4487508;32;20108;-74
2022/01/03 07:59:30;;;;;;;15.98;7.25;;;;;;;13.65;50.15;97961.16;4473433;32;20147;-74
2022/01/03 08:01:58;;;;;;;15.27;6.95;;;;;;;13.20;51.32;97955.03;4488043;32;20146;-75
2022/01/03 08:04:26;;;;;;;15.75;6.80;;;;;;;13.15;50.97;97959.56;4487643;32;20077;-75
2022/01/03 08:06:54;;;;;;;14.73;6.53;;;;;;;13.95;49.20;97955.16;4473761;32;20092;-75
2022/01/03 08:09:20;;;;;;;12.45;6.03;;;;;;;13.98;48.79;97965.34;4487702;32;20160;-75
2022/01/03 08:11:47;;;;;;;12.25;5.47;;;;;;;13.95;48.54;97958.59;4487659;32;20147;-75
2022/01/03 08:14:15;;;;;;;11.45;5.15;;;;;;;14.04;47.87;97959.81;4487627;32;20105;-75
2022/01/03 08:16:41;;;;;;;12.32;4.78;;;;;;;13.69;49.23;97961.81;4487722;32;20170;-75
2022/01/03 08:19:09;;;;;;;13.05;5.03;;;;;;;13.61;48.98;97949.31;4487374;32;20107;-75
2022/01/03 08:21:35;;;;;;;11.52;4.57;;;;;;;11.95;53.60;97946.03;4487781;32;20400;-75
2022/01/03 08:24:03;;;;;;;12.25;4.82;;;;;;;12.60;52.23;97944.41;4487828;32;20148;-77
2022/01/03 08:26:30;;;;;;;10.35;4.57;;;;;;;13.86;48.96;97956.50;4487287;32;20088;-78
2022/01/03 08:28:57;;;;;;;9.63;3.62;;;;;;;14.86;46.11;97951.44;4487066;32;20156;-76
2022/01/03 08:31:24;;;;;;;10.30;4.30;;;;;;;15.96;43.03;97966.13;4487797;32;20116;-76
2022/01/03 08:33:53;;;;;;;12.60;4.78;;;;;;;15.85;43.97;97966.00;4487487;32;20183;-77
2022/01/03 08:36:20;;;;;;;10.75;3.95;;;;;;;15.71;44.13;97971.22;4487441;32;20080;-77
2022/01/03 08:38:47;;;;;;;13.02;5.05;;;;;;;15.57;43.44;97959.09;4487659;32;20092;-76
2022/01/03 08:41:14;;;;;;;11.40;4.53;;;;;;;15.63;43.73;97969.16;4487401;32;20106;-77
2022/01/03 08:43:41;;;;;;;10.85;4.50;;;;;;;14.48;46.15;97957.22;4487721;32;20137;-76
2022/01/03 08:46:08;;;;;;;12.77;5.40;;;;;;;15.13;45.07;97957.56;4487478;32;20171;-77
2022/01/03 08:48:35;;;;;;;13.43;5.70;;;;;;;15.20;45.15;97955.38;4487231;32;20072;-77
2022/01/03 08:51:02;;;;;;;12.00;4.00;;;;;;;15.57;43.76;97948.69;4487523;32;20172;-76
2022/01/03 08:53:32;;;;;;;11.15;4.25;;;;;;;15.16;43.66;97956.50;4487434;32;20097;-76
2022/01/03 08:55:59;;;;;;;12.88;5.03;;;;;;;14.98;44.93;97950.69;4487375;32;20143;-76
2022/01/03 08:58:26;;;;;;;5.95;1.73;;;;;;;15.32;44.70;97946.84;4487111;32;20156;-76
2022/01/03 09:00:53;;;;;;;5.97;1.42;;;;;;;15.34;42.18;97944.97;4486714;32;20481;-77
2022/01/03 09:03:21;;;;;;;5.95;1.25;;;;;;;15.01;43.53;97953.13;4487502;32;20145;-77
2022/01/03 09:05:49;;;;;;;4.22;1.20;;;;;;;15.34;42.15;97935.41;4473323;32;20116;-79
2022/01/03 09:08:21;;;;;;;4.75;1.35;;;;;;;15.14;42.35;97937.59;4487137;32;20552;-79
2022/01/03 09:10:49;;;;;;;4.57;1.12;;;;;;;14.74;43.02;97938.28;4487498;32;20148;-77
2022/01/03 09:13:18;;;;;;;3.40;1.30;;;;;;;15.25;42.62;97946.38;4473445;32;20156;-78
2022/01/03 09:15:46;;;;;;;2.92;1.08;;;;;;;16.00;40.76;97951.13;4486666;32;20102;-77
2022/01/03 09:18:17;;;;;;;3.65;1.00;;;;;;;16.13;39.59;97941.56;4487161;32;20156;-78
2022/01/03 09:20:45;;;;;;;1.95;0.95;;;;;;;16.10;39.49;97941.78;4473442;32;20156;-78
2022/01/03 09:23:18;;;;;;;3.17;1.20;;;;;;;16.52;39.43;97934.59;4487144;32;20104;-78
2022/01/03 09:28:49;;;;;;;2.35;0.95;;;;;;;16.45;38.25;97929.81;4487079;32;20519;-78
2022/01/03 09:31:27;;;;;;;4.20;1.25;;;;;;;17.09;38.07;97940.16;4487474;32;20088;-77
2022/01/03 09:33:59;;;;;;;6.07;1.42;;;;;;;16.92;38.39;97933.53;4487424;32;20152;-78
2022/01/03 09:36:28;;;;;;;3.87;1.52;;;;;;;16.33;39.67;97927.19;4487068;32;20569;-78
2022/01/03 09:38:55;;;;;;;3.45;1.40;;;;;;;16.21;39.09;97931.47;4487232;32;20136;-79
2022/01/03 09:41:24;;;;;;;3.78;1.40;;;;;;;16.40;39.30;97929.28;4485926;32;20126;-78
2022/01/03 09:43:56;;;;;;;6.45;1.60;;;;;;;16.67;38.25;97929.16;4472828;32;20157;-78
2022/01/03 09:46:26;;;;;;;4.93;1.60;;;;;;;17.56;36.76;97928.94;4487325;32;20092;-77
2022/01/03 09:48:55;;;;;;;5.00;1.42;;;;;;;16.48;38.96;97926.16;4487076;32;20088;-77
2022/01/03 09:51:29;;;;;;;3.17;1.40;;;;;;;16.46;38.74;97941.88;4486880;32;20104;-78
2022/01/03 09:54:00;;;;;;;5.93;1.75;;;;;;;17.09;37.50;97947.16;4487187;32;20096;-78
2022/01/03 09:56:31;;;;;;;5.82;1.60;;;;;;;16.48;39.19;97937.44;4486874;32;20139;-79
2022/01/03 09:59:00;;;;;;;3.80;1.42;;;;;;;17.28;37.10;97937.06;4473104;32;20102;-79
2022/01/03 10:01:29;;;;;;;5.68;1.77;;;;;;;16.33;38.69;97920.22;4473232;32;20097;-78
2022/01/03 10:03:57;;;;;;;6.22;1.87;;;;;;;16.36;38.77;97921.78;4486678;32;20103;-79
2022/01/03 10:06:25;;;;;;;5.55;1.55;;;;;;;16.24;39.36;97907.00;4472871;32;20170;-77
2022/01/03 10:08:53;;;;;;;5.03;1.70;;;;;;;16.33;39.58;97908.97;4486939;32;20072;-76
2022/01/03 10:11:21;;;;;;;7.22;1.87;;;;;;;16.25;39.30;97929.47;4459717;32;20119;-77
2022/01/03 10:13:49;;;;;;;6.12;1.80;;;;;;;16.22;39.27;97943.53;4486800;32;20080;-77
2022/01/03 10:16:18;;;;;;;6.57;1.85;;;;;;;16.34;39.82;97944.50;4486953;32;20104;-77
2022/01/03 10:19:05;;;;;;;5.62;1.87;;;;;;;16.30;39.59;97920.44;4486509;32;20149;-78
2022/01/03 10:21:45;;;;;;;11.07;2.05;;;;;;;16.55;39.01;97919.59;4473071;32;20152;-79
2022/01/03 10:24:15;;;;;;;6.95;2.25;;;;;;;16.50;39.77;97932.09;4487423;32;20124;-78
2022/01/03 10:26:43;;;;;;;12.50;4.93;;;;;;;16.97;38.82;97947.06;4473268;32;20175;-78
2022/01/03 10:29:15;;;;;;;11.20;4.75;;;;;;;16.54;41.31;97959.59;4487904;32;20151;-78
2022/01/03 10:31:45;;;;;;;11.57;5.12;;;;;;;16.67;41.01;97954.38;4488798;32;20132;-79
2022/01/03 10:34:15;;;;;;;11.88;5.45;;;;;;;16.42;41.46;97950.03;4487112;32;20112;-78
2022/01/03 10:36:45;;;;;;;11.50;5.15;;;;;;;16.34;41.54;97941.88;4486079;32;20605;-78
2022/01/03 10:39:13;;;;;;;12.25;5.00;;;;;;;17.52;39.33;97937.91;4486091;32;20132;-78
2022/01/03 10:41:41;;;;;;;13.70;5.82;;;;;;;16.87;41.12;97934.78;4486764;32;20135;-79
2022/01/03 10:44:09;;;;;;;12.85;5.60;;;;;;;16.92;41.67;97946.56;4472800;32;20691;-77
2022/01/03 10:46:37;;;;;;;12.35;5.50;;;;;;;17.28;40.58;97945.72;4486246;32;20828;-77
2022/01/03 10:49:10;;;;;;;13.75;5.80;;;;;;;17.32;40.34;97941.94;4486077;32;20149;-77
2022/01/03 10:51:37;;;;;;;13.30;6.25;;;;;;;17.00;41.34;97941.63;4486531;32;20243;-77
2022/01/03 10:54:09;;;;;;;13.52;6.62;;;;;;;16.70;41.83;97942.03;4474193;32;20120;-77
2022/01/03 10:56:38;;;;;;;14.18;7.10;;;;;;;16.75;42.01;97929.50;4488468;32;20434;-78
2022/01/03 10:59:14;;;;;;;15.43;7.43;;;;;;;16.67;42.24;97928.31;4488417;32;20088;-78
2022/01/03 11:02:04;;;;;;;12.35;5.87;;;;;;;16.93;41.98;97930.00;4488639;32;20534;-78
2022/01/03 11:04:49;;;;;;;14.07;6.18;;;;;;;17.19;40.36;97935.94;4488341;32;20104;-78
2022/01/03 11:13:13;;;;;;;12.35;5.80;;;;;;;16.79;41.58;97930.09;4475215;32;20120;-78
2022/01/03 11:15:45;;;;;;;14.40;5.30;;;;;;;16.71;41.26;97937.66;4488143;32;20164;-78
2022/01/03 11:18:17;;;;;;;12.55;4.65;;;;;;;16.42;41.64;97932.62;4474297;32;20399;-78
2022/01/03 11:20:47;;;;;;;17.35;6.50;;;;;;;16.11;42.25;97928.66;4487816;32;20482;-78
2022/01/03 11:23:22;;;;;;;13.50;5.87;;;;;;;15.76;44.09;97920.59;4488521;32;20157;-78
2022/01/03 11:25:51;;;;;;;9.90;3.95;;;;;;;15.87;43.51;97920.72;4488607;32;20113;-78
2022/01/03 11:28:18;;;;;;;8.52;3.55;;;;;;;16.27;42.67;97918.06;4474201;32;20092;-77
2022/01/03 11:30:45;;;;;;;10.95;3.75;;;;;;;15.19;43.20;97914.72;4488429;32;20167;-78
2022/01/03 11:33:14;;;;;;;10.43;4.07;;;;;;;15.05;43.71;97913.00;4488440;32;20061;-77
2022/01/03 11:35:49;;;;;;;9.18;3.65;;;;;;;14.46;45.28;97912.31;4487883;32;20149;-77
2022/01/03 11:38:20;;;;;;;12.75;4.10;;;;;;;14.59;45.41;97923.66;4488319;32;20183;-78
2022/01/03 11:40:47;;;;;;;14.02;5.10;;;;;;;14.84;45.40;97914.34;4488518;32;20717;-77
2022/01/03 11:43:15;;;;;;;14.48;4.60;;;;;;;14.56;45.97;97912.59;4475179;32;20164;-79
2022/01/03 11:45:43;;;;;;;11.40;4.12;;;;;;;14.70;46.38;97913.44;4489193;32;20445;-77
2022/01/03 11:48:11;;;;;;;11.82;4.62;;;;;;;14.55;46.58;97903.16;4489748;32;20139;-78